createdAt,value
2023-05-14T00:01:32.191Z,83.26
2023-05-14T00:03:59.318Z,82.90
2023-05-14T00:06:26.186Z,82.74
2023-05-14T00:08:52.883Z,82.98
2023-05-14T00:11:19.864Z,82.54
2023-05-14T00:13:46.673Z,82.67
2023-05-14T00:16:13.455Z,82.72
2023-05-14T00:18:40.251Z,82.76
2023-05-14T00:21:07.082Z,82.35
2023-05-14T00:23:33.917Z,82.56
2023-05-14T00:26:00.595Z,82.27
2023-05-14T00:28:27.496Z,82.82
2023-05-14T00:30:54.431Z,82.52
2023-05-14T00:33:21.166Z,82.79
2023-05-14T00:35:47.882Z,82.48
2023-05-14T00:38:19.504Z,82.08
2023-05-14T00:40:51.431Z,82.31
2023-05-14T00:43:21.795Z,82.39
2023-05-14T00:45:53.091Z,82.74
2023-05-14T00:48:23.295Z,83.37
2023-05-14T00:50:51.336Z,83.96
2023-05-14T00:53:21.345Z,84.02
2023-05-14T00:55:49.617Z,84.61
2023-05-14T00:58:16.550Z,84.43
2023-05-14T01:00:43.329Z,85.32
2023-05-14T01:03:10.283Z,85.52
2023-05-14T01:05:43.817Z,85.21
2023-05-14T01:08:25.992Z,85.46
2023-05-14T01:10:55.023Z,85.23
2023-05-14T01:14:06.764Z,86.13
2023-05-14T01:16:34.840Z,86.53
2023-05-14T01:19:02.428Z,86.44
2023-05-14T01:21:43.304Z,87.04
2023-05-14T01:24:10.084Z,87.71
2023-05-14T01:26:37.236Z,88.32
2023-05-14T01:29:14.401Z,88.51
2023-05-14T01:31:43.732Z,89.03
2023-05-14T01:34:12.374Z,89.26
2023-05-14T01:36:40.860Z,89.68
2023-05-14T01:39:09.831Z,90.31
2023-05-14T01:41:37.647Z,90.54
2023-05-14T01:44:04.539Z,90.41
2023-05-14T01:46:32.957Z,90.80
2023-05-14T01:49:00.319Z,90.71
2023-05-14T01:51:27.278Z,91.17
2023-05-14T01:53:54.095Z,91.50
2023-05-14T01:56:24.256Z,91.27
2023-05-14T01:58:50.969Z,91.44
2023-05-14T02:01:17.685Z,91.60
2023-05-14T02:03:44.460Z,91.64
2023-05-14T02:06:11.222Z,91.70
2023-05-14T02:08:37.889Z,92.06
2023-05-14T02:11:04.677Z,91.93
2023-05-14T02:13:31.328Z,92.36
2023-05-14T02:15:58.072Z,92.81
2023-05-14T02:18:24.855Z,92.84
2023-05-14T02:20:51.584Z,93.09
2023-05-14T02:23:18.717Z,92.71
2023-05-14T02:25:46.222Z,92.78
2023-05-14T02:28:12.893Z,92.97
2023-05-14T02:30:40.260Z,93.06
2023-05-14T02:33:07.124Z,92.34
2023-05-14T02:35:33.866Z,92.31
2023-05-14T02:38:00.723Z,91.89
2023-05-14T02:40:27.402Z,91.62
2023-05-14T02:42:54.184Z,91.37
2023-05-14T02:45:21.758Z,91.42
2023-05-14T02:47:48.530Z,91.16
2023-05-14T02:50:15.279Z,90.61
2023-05-14T02:52:41.968Z,90.86
2023-05-14T02:55:09.304Z,90.89
2023-05-14T02:57:36.012Z,90.56
2023-05-14T03:00:02.724Z,90.61
2023-05-14T03:02:29.868Z,90.61
2023-05-14T03:04:57.041Z,90.88
2023-05-14T03:07:23.883Z,90.74
2023-05-14T03:09:50.567Z,90.81
2023-05-14T03:12:18.289Z,90.93
2023-05-14T03:14:44.964Z,90.42
2023-05-14T03:17:11.826Z,90.34
2023-05-14T03:19:38.614Z,90.07
2023-05-14T03:22:05.348Z,90.52
2023-05-14T03:24:32.061Z,90.14
2023-05-14T03:26:58.770Z,90.44
2023-05-14T03:29:25.478Z,90.28
2023-05-14T03:31:52.246Z,90.46
2023-05-14T03:34:19.036Z,90.43
2023-05-14T03:36:45.790Z,90.73
2023-05-14T03:39:15.606Z,90.85
2023-05-14T03:41:42.320Z,90.70
2023-05-14T03:44:09.044Z,90.71
2023-05-14T03:46:36.018Z,91.13
2023-05-14T03:49:02.848Z,91.23
2023-05-14T03:51:29.628Z,91.16
2023-05-14T03:53:56.667Z,91.14
2023-05-14T03:56:23.360Z,91.35
2023-05-14T03:58:50.089Z,91.49
2023-05-14T04:01:16.913Z,91.47
2023-05-14T04:03:43.884Z,91.75
2023-05-14T04:06:10.686Z,91.86
2023-05-14T04:08:37.379Z,91.71
2023-05-14T04:11:06.835Z,91.59
2023-05-14T04:13:33.504Z,91.83
2023-05-14T04:16:00.645Z,91.45
2023-05-14T04:18:27.442Z,91.60
2023-05-14T04:20:54.297Z,91.73
2023-05-14T04:23:21.004Z,91.58
2023-05-14T04:25:47.730Z,91.28
2023-05-14T04:28:15.169Z,91.37
2023-05-14T04:30:42.084Z,91.27
2023-05-14T04:33:08.808Z,91.38
2023-05-14T04:35:35.672Z,91.49
2023-05-14T04:38:02.354Z,91.46
2023-05-14T04:40:29.015Z,90.90
2023-05-14T04:42:55.834Z,91.40
2023-05-14T04:45:22.641Z,91.79
2023-05-14T04:47:49.394Z,91.57
2023-05-14T04:50:16.671Z,91.84
2023-05-14T04:52:43.358Z,92.56
2023-05-14T04:55:10.436Z,92.71
2023-05-14T04:57:37.100Z,93.01
2023-05-14T05:00:06.160Z,92.60
2023-05-14T05:02:34.946Z,92.63
2023-05-14T05:05:01.817Z,92.75
2023-05-14T05:07:28.523Z,92.62
2023-05-14T05:09:55.217Z,92.44
2023-05-14T05:12:21.978Z,93.02
2023-05-14T05:14:48.687Z,92.47
2023-05-14T05:17:15.471Z,92.61
2023-05-14T05:19:44.285Z,92.60
2023-05-14T05:22:11.525Z,92.90
2023-05-14T05:24:38.243Z,92.81
2023-05-14T05:27:05.686Z,92.96
2023-05-14T05:29:32.491Z,92.95
2023-05-14T05:31:59.449Z,93.16
2023-05-14T05:34:26.143Z,93.02
2023-05-14T05:36:52.836Z,93.44
2023-05-14T05:39:19.603Z,93.76
2023-05-14T05:41:46.308Z,93.75
2023-05-14T05:44:13.164Z,93.87
2023-05-14T05:46:39.934Z,93.95
2023-05-14T05:49:06.650Z,93.56
2023-05-14T05:51:33.559Z,93.57
2023-05-14T05:54:00.358Z,93.84
2023-05-14T05:56:27.038Z,93.50
2023-05-14T05:58:54.611Z,94.03
2023-05-14T06:01:21.351Z,94.18
2023-05-14T06:03:48.802Z,93.84
2023-05-14T06:06:15.886Z,93.80
2023-05-14T06:08:42.630Z,93.38
2023-05-14T06:11:09.365Z,93.30
2023-05-14T06:13:36.271Z,92.98
2023-05-14T06:16:03.001Z,92.85
2023-05-14T06:18:29.725Z,92.36
2023-05-14T06:20:57.286Z,92.51
2023-05-14T06:23:23.951Z,92.25
2023-05-14T06:25:51.218Z,91.86
2023-05-14T06:28:18.085Z,91.70
2023-05-14T06:30:44.784Z,91.50
2023-05-14T06:33:13.609Z,91.18
2023-05-14T06:35:40.323Z,90.88
2023-05-14T06:38:07.227Z,91.02
2023-05-14T06:40:33.992Z,90.25
2023-05-14T06:43:00.725Z,90.30
2023-05-14T06:45:27.470Z,90.75
2023-05-14T06:47:54.283Z,90.41
2023-05-14T06:50:21.364Z,90.18
2023-05-14T06:52:48.433Z,89.32
2023-05-14T06:55:15.212Z,88.87
2023-05-14T06:57:41.920Z,88.29
2023-05-14T07:00:09.192Z,88.29
2023-05-14T07:02:36.025Z,88.06
2023-05-14T07:05:03.302Z,88.12
2023-05-14T07:07:29.994Z,87.89
2023-05-14T07:09:56.704Z,87.63
2023-05-14T07:12:23.421Z,87.72
2023-05-14T07:14:50.803Z,87.01
2023-05-14T07:17:17.691Z,86.74
2023-05-14T07:19:44.454Z,86.51
2023-05-14T07:22:11.202Z,85.87
2023-05-14T07:24:37.900Z,85.29
2023-05-14T07:27:04.996Z,85.35
2023-05-14T07:29:35.114Z,84.83
2023-05-14T07:32:02.237Z,84.04
2023-05-14T07:34:28.990Z,83.65
2023-05-14T07:37:01.206Z,83.20
2023-05-14T07:39:27.989Z,82.71
2023-05-14T07:41:57.815Z,81.90
2023-05-14T07:44:24.654Z,81.69
2023-05-14T07:46:51.572Z,80.98
2023-05-14T07:49:25.633Z,80.79
2023-05-14T07:51:52.399Z,80.28
2023-05-14T07:54:19.180Z,80.16
2023-05-14T07:56:45.902Z,79.85
2023-05-14T07:59:13.152Z,79.23
2023-05-14T08:01:39.908Z,78.92
2023-05-14T08:04:06.893Z,78.46
2023-05-14T08:06:40.526Z,78.11
2023-05-14T08:09:07.348Z,76.79
2023-05-14T08:11:34.580Z,76.43
2023-05-14T08:14:06.618Z,76.17
2023-05-14T08:16:33.700Z,75.61
2023-05-14T08:19:00.526Z,75.14
2023-05-14T08:21:28.303Z,74.49
2023-05-14T08:23:55.060Z,73.87
2023-05-14T08:26:22.284Z,73.47
2023-05-14T08:28:50.981Z,72.24
2023-05-14T08:31:17.782Z,72.28
2023-05-14T08:33:44.509Z,71.27
2023-05-14T08:36:11.332Z,71.17
2023-05-14T08:38:38.090Z,70.71
2023-05-14T08:41:11.818Z,69.96
2023-05-14T08:44:01.751Z,68.26
2023-05-14T08:46:31.217Z,67.42
2023-05-14T08:49:10.488Z,66.72
2023-05-14T08:51:37.256Z,65.53
2023-05-14T08:54:04.554Z,64.66
2023-05-14T08:56:33.183Z,64.09
2023-05-14T08:59:00.873Z,62.72
2023-05-14T09:01:29.315Z,61.02
2023-05-14T09:03:56.553Z,59.85
2023-05-14T09:06:24.464Z,58.30
2023-05-14T09:08:51.416Z,57.37
2023-05-14T09:11:18.094Z,56.50
2023-05-14T09:13:44.811Z,55.54
2023-05-14T09:16:11.670Z,55.79
2023-05-14T09:18:38.593Z,54.51
2023-05-14T09:21:05.450Z,53.52
2023-05-14T09:23:34.588Z,53.21
2023-05-14T09:26:05.771Z,52.31
2023-05-14T09:28:32.416Z,52.30
2023-05-14T09:31:01.715Z,51.83
2023-05-14T09:33:29.743Z,51.57
2023-05-14T09:35:59.994Z,51.14
2023-05-14T09:38:31.295Z,50.79
2023-05-14T09:40:58.851Z,50.89
2023-05-14T09:43:26.337Z,49.81
2023-05-14T09:45:53.694Z,50.08
2023-05-14T09:48:20.729Z,49.27
2023-05-14T09:50:47.553Z,48.70
2023-05-14T09:53:14.779Z,48.30
2023-05-14T09:55:41.962Z,49.81
2023-05-14T09:58:08.833Z,46.13
2023-05-14T10:00:36.065Z,46.40
2023-05-14T10:03:08.000Z,46.66
2023-05-14T10:05:37.934Z,47.20
2023-05-14T10:08:14.261Z,47.49
2023-05-14T10:10:41.125Z,46.39
2023-05-14T10:13:20.834Z,45.29
2023-05-14T10:16:21.343Z,44.79
2023-05-14T10:18:53.533Z,44.29
2023-05-14T10:21:24.582Z,43.13
2023-05-14T10:23:51.731Z,42.17
2023-05-14T10:26:18.658Z,41.64
2023-05-14T10:28:45.741Z,40.73
2023-05-14T10:31:14.485Z,42.02
2023-05-14T10:33:49.581Z,41.85
2023-05-14T10:36:17.815Z,44.46
2023-05-14T10:38:44.504Z,44.63
2023-05-14T10:41:13.128Z,43.92
2023-05-14T10:43:41.740Z,42.43
2023-05-14T10:46:10.128Z,41.49
2023-05-14T10:48:38.065Z,42.09
2023-05-14T10:51:07.756Z,41.80
2023-05-14T10:53:37.350Z,43.00
2023-05-14T10:56:08.497Z,42.40
2023-05-14T10:58:39.682Z,42.62
2023-05-14T11:01:08.546Z,42.61
2023-05-14T11:03:43.322Z,41.91
2023-05-14T11:06:11.443Z,41.30
2023-05-14T11:08:38.881Z,41.09
2023-05-14T11:11:12.333Z,40.69
2023-05-14T11:13:39.112Z,40.54
2023-05-14T11:16:23.423Z,40.87
2023-05-14T11:19:02.360Z,39.45
2023-05-14T11:21:30.462Z,39.30
2023-05-14T11:23:57.721Z,38.74
2023-05-14T11:26:24.577Z,38.41
2023-05-14T11:28:51.388Z,37.02
2023-05-14T11:31:18.176Z,36.85
2023-05-14T11:33:47.138Z,36.21
2023-05-14T11:36:18.992Z,34.83
2023-05-14T11:38:54.930Z,35.90
2023-05-14T11:41:28.349Z,35.72
2023-05-14T11:43:55.158Z,36.27
2023-05-14T11:46:22.617Z,37.57
2023-05-14T11:48:55.582Z,37.17
2023-05-14T11:51:23.594Z,37.18
2023-05-14T11:53:50.620Z,37.29
2023-05-14T11:56:22.790Z,36.48
2023-05-14T11:58:49.603Z,34.81
2023-05-14T12:01:16.733Z,34.89
2023-05-14T12:03:43.802Z,32.73
2023-05-14T12:06:10.817Z,34.73
2023-05-14T12:08:37.880Z,34.24
2023-05-14T12:11:04.858Z,34.60
2023-05-14T12:13:32.339Z,34.34
2023-05-14T12:16:01.016Z,33.45
2023-05-14T12:18:29.918Z,34.32
2023-05-14T12:20:59.351Z,34.04
2023-05-14T12:23:30.931Z,34.19
2023-05-14T12:26:08.923Z,33.92
2023-05-14T12:28:38.275Z,33.80
2023-05-14T12:31:05.617Z,32.60
2023-05-14T12:33:32.603Z,32.40
2023-05-14T12:36:19.812Z,31.58
2023-05-14T12:38:47.061Z,32.65
2023-05-14T12:41:13.958Z,33.76
2023-05-14T12:43:44.818Z,34.08
2023-05-14T12:46:11.663Z,34.92
2023-05-14T12:48:38.703Z,35.25
2023-05-14T12:51:05.449Z,34.05
2023-05-14T12:53:32.411Z,35.06
2023-05-14T12:55:59.168Z,35.72
2023-05-14T12:58:25.878Z,35.83
2023-05-14T13:00:52.711Z,35.93
2023-05-14T13:03:19.554Z,36.02
2023-05-14T13:05:46.404Z,36.15
2023-05-14T13:08:15.060Z,35.41
2023-05-14T13:10:41.844Z,34.50
2023-05-14T13:13:08.646Z,34.30
2023-05-14T13:15:36.746Z,34.39
2023-05-14T13:18:03.954Z,35.46
2023-05-14T13:20:31.383Z,34.68
2023-05-14T13:22:58.766Z,35.04
2023-05-14T13:25:26.028Z,34.30
2023-05-14T13:27:52.942Z,33.59
2023-05-14T13:30:20.301Z,33.95
2023-05-14T13:32:47.147Z,34.15
2023-05-14T13:35:14.355Z,35.11
2023-05-14T13:37:41.156Z,35.80
2023-05-14T13:40:08.620Z,34.80
2023-05-14T13:42:36.457Z,34.94
2023-05-14T13:45:04.219Z,35.38
2023-05-14T13:47:31.523Z,36.00
2023-05-14T13:49:58.247Z,36.20
2023-05-14T13:52:25.576Z,35.99
2023-05-14T13:54:53.399Z,35.36
2023-05-14T13:57:20.361Z,35.56
2023-05-14T13:59:47.781Z,35.97
2023-05-14T14:02:14.937Z,36.23
2023-05-14T14:04:41.815Z,36.67
2023-05-14T14:07:09.334Z,36.91
2023-05-14T14:09:37.139Z,36.26
2023-05-14T14:12:04.753Z,35.49
2023-05-14T14:14:32.035Z,34.41
2023-05-14T14:17:04.969Z,34.48
2023-05-14T14:19:31.790Z,34.15
2023-05-14T14:22:04.737Z,34.38
2023-05-14T14:24:31.483Z,34.59
2023-05-14T14:26:58.224Z,34.61
2023-05-14T14:29:25.057Z,34.55
2023-05-14T14:31:51.961Z,35.20
2023-05-14T14:34:20.514Z,34.67
2023-05-14T14:36:47.989Z,34.91
2023-05-14T14:39:15.036Z,33.93
2023-05-14T14:41:41.748Z,34.49
2023-05-14T14:44:08.619Z,34.58
2023-05-14T14:46:35.469Z,33.99
2023-05-14T14:49:02.279Z,34.96
2023-05-14T14:51:30.405Z,35.21
2023-05-14T14:54:02.560Z,34.74
2023-05-14T14:56:29.456Z,35.28
2023-05-14T14:58:59.397Z,35.15
2023-05-14T15:01:26.381Z,34.72
2023-05-14T15:03:53.492Z,35.56
2023-05-14T15:06:20.408Z,36.20
2023-05-14T15:08:47.206Z,37.31
2023-05-14T15:11:14.987Z,37.55
2023-05-14T15:13:42.599Z,37.72
2023-05-14T15:16:09.559Z,37.10
2023-05-14T15:18:36.486Z,36.31
2023-05-14T15:21:03.466Z,36.72
2023-05-14T15:23:30.527Z,36.92
2023-05-14T15:25:57.596Z,36.54
2023-05-14T15:28:24.384Z,36.95
2023-05-14T15:30:51.246Z,36.73
2023-05-14T15:33:19.704Z,37.04
2023-05-14T15:35:46.691Z,37.66
2023-05-14T15:38:16.236Z,38.53
2023-05-14T15:40:43.056Z,38.96
2023-05-14T15:43:09.810Z,38.83
2023-05-14T15:45:36.770Z,38.10
2023-05-14T15:48:03.679Z,38.29
2023-05-14T15:50:30.562Z,38.59
2023-05-14T15:52:57.774Z,38.86
2023-05-14T15:55:24.688Z,37.95
2023-05-14T15:57:51.800Z,38.07
2023-05-14T16:00:18.932Z,37.82
2023-05-14T16:02:46.161Z,38.39
2023-05-14T16:05:14.012Z,38.98
2023-05-14T16:07:41.029Z,38.58
2023-05-14T16:10:08.542Z,38.27
2023-05-14T16:12:35.416Z,39.29
2023-05-14T16:15:06.202Z,40.05
2023-05-14T16:17:34.107Z,40.57
2023-05-14T16:20:01.467Z,40.47
2023-05-14T16:22:29.588Z,40.74
2023-05-14T16:24:56.323Z,41.17
2023-05-14T16:27:23.230Z,41.23
2023-05-14T16:29:50.087Z,41.46
2023-05-14T16:32:16.860Z,41.11
2023-05-14T16:34:49.923Z,41.47
2023-05-14T16:37:17.903Z,41.06
2023-05-14T16:39:44.670Z,40.92
2023-05-14T16:42:11.787Z,40.76
2023-05-14T16:44:38.838Z,40.82
2023-05-14T16:47:05.901Z,41.74
2023-05-14T16:49:38.702Z,41.78
2023-05-14T16:52:06.247Z,41.01
2023-05-14T16:54:33.374Z,41.72
2023-05-14T16:57:00.292Z,40.83
2023-05-14T16:59:27.124Z,40.86
2023-05-14T17:01:54.183Z,40.74
2023-05-14T17:04:21.415Z,41.31
2023-05-14T17:06:48.653Z,41.42
2023-05-14T17:09:15.533Z,41.58
2023-05-14T17:11:42.238Z,41.89
2023-05-14T17:14:09.312Z,42.07
2023-05-14T17:16:36.362Z,41.83
2023-05-14T17:19:03.279Z,41.72
2023-05-14T17:21:30.021Z,41.87
2023-05-14T17:23:56.726Z,42.21
2023-05-14T17:26:23.547Z,42.42
2023-05-14T17:28:50.367Z,42.42
2023-05-14T17:31:17.331Z,42.13
2023-05-14T17:33:57.734Z,41.72
2023-05-14T17:36:28.245Z,42.00
2023-05-14T17:38:55.219Z,42.33
2023-05-14T17:41:21.986Z,42.75
2023-05-14T17:43:48.908Z,42.75
2023-05-14T17:46:15.935Z,42.67
2023-05-14T17:48:43.078Z,42.49
2023-05-14T17:51:12.102Z,42.80
2023-05-14T17:53:38.982Z,42.89
2023-05-14T17:56:05.876Z,43.14
2023-05-14T17:58:32.616Z,43.24
2023-05-14T18:00:59.479Z,43.05
2023-05-14T18:03:26.368Z,42.89
2023-05-14T18:05:53.142Z,43.37
2023-05-14T18:08:20.162Z,42.71
2023-05-14T18:10:46.989Z,42.96
2023-05-14T18:13:13.757Z,43.25
2023-05-14T18:15:40.475Z,43.26
2023-05-14T18:18:07.356Z,43.20
2023-05-14T18:20:35.594Z,43.03
2023-05-14T18:23:03.076Z,43.28
2023-05-14T18:25:29.958Z,43.69
2023-05-14T18:27:56.694Z,43.78
2023-05-14T18:30:24.195Z,43.48
2023-05-14T18:32:51.036Z,43.33
2023-05-14T18:35:17.991Z,44.13
2023-05-14T18:37:45.108Z,44.49
2023-05-14T18:40:16.865Z,44.61
2023-05-14T18:42:45.117Z,44.40
2023-05-14T18:45:12.046Z,44.27
2023-05-14T18:47:39.885Z,44.56
2023-05-14T18:50:07.992Z,44.83
2023-05-14T18:52:35.104Z,44.48
2023-05-14T18:55:01.855Z,44.75
2023-05-14T18:57:29.604Z,45.07
2023-05-14T18:59:58.712Z,45.40
2023-05-14T19:02:27.518Z,45.13
2023-05-14T19:04:54.358Z,45.72
2023-05-14T19:07:24.172Z,45.85
2023-05-14T19:09:51.163Z,45.77
2023-05-14T19:12:17.952Z,45.68
2023-05-14T19:14:44.736Z,46.28
2023-05-14T19:17:11.551Z,46.23
2023-05-14T19:19:39.534Z,46.13
2023-05-14T19:22:06.900Z,46.38
2023-05-14T19:24:33.768Z,46.57
2023-05-14T19:27:00.863Z,46.75
2023-05-14T19:29:27.635Z,46.99
2023-05-14T19:31:54.451Z,46.97
2023-05-14T19:34:21.706Z,46.78
2023-05-14T19:36:48.629Z,47.43
2023-05-14T19:39:15.551Z,47.60
2023-05-14T19:41:42.336Z,47.62
2023-05-14T19:44:09.088Z,47.50
2023-05-14T19:46:35.907Z,48.07
2023-05-14T19:49:02.769Z,48.06
2023-05-14T19:51:29.463Z,48.43
2023-05-14T19:53:56.174Z,48.64
2023-05-14T19:56:24.290Z,48.88
2023-05-14T19:58:52.489Z,48.66
2023-05-14T20:01:21.129Z,49.32
2023-05-14T20:03:47.937Z,49.08
2023-05-14T20:06:14.792Z,49.20
2023-05-14T20:08:41.506Z,49.02
2023-05-14T20:11:08.235Z,49.29
2023-05-14T20:13:36.639Z,49.53
2023-05-14T20:16:03.383Z,49.57
2023-05-14T20:18:30.273Z,49.85
2023-05-14T20:20:57.117Z,50.54
2023-05-14T20:23:23.854Z,49.89
2023-05-14T20:25:51.441Z,50.17
2023-05-14T20:28:18.180Z,50.57
2023-05-14T20:30:44.935Z,50.62
2023-05-14T20:33:13.631Z,50.80
2023-05-14T20:35:44.082Z,51.00
2023-05-14T20:38:12.937Z,50.46
2023-05-14T20:40:40.115Z,50.63
2023-05-14T20:43:06.913Z,50.52
2023-05-14T20:45:33.725Z,50.62
2023-05-14T20:48:00.819Z,50.78
2023-05-14T20:50:28.119Z,51.43
2023-05-14T20:52:55.670Z,51.80
2023-05-14T20:55:22.926Z,51.41
2023-05-14T20:57:50.086Z,51.47
2023-05-14T21:00:17.249Z,51.72
2023-05-14T21:02:44.011Z,52.32
2023-05-14T21:05:11.147Z,52.40
2023-05-14T21:07:39.621Z,52.86
2023-05-14T21:10:08.286Z,53.21
2023-05-14T21:12:35.026Z,53.46
2023-05-14T21:15:01.727Z,54.11
2023-05-14T21:17:28.503Z,54.17
2023-05-14T21:19:55.241Z,55.02
2023-05-14T21:22:22.401Z,55.87
2023-05-14T21:24:50.681Z,56.41
2023-05-14T21:27:17.488Z,57.38
2023-05-14T21:29:46.468Z,58.19
2023-05-14T21:32:13.188Z,58.67
2023-05-14T21:34:39.967Z,59.45
2023-05-14T21:37:06.730Z,59.99
2023-05-14T21:39:33.468Z,60.82
2023-05-14T21:42:00.195Z,61.84
2023-05-14T21:44:26.965Z,62.33
2023-05-14T21:46:53.709Z,63.23
2023-05-14T21:49:20.502Z,63.72
2023-05-14T21:51:47.243Z,64.51
2023-05-14T21:54:14.254Z,65.58
2023-05-14T21:56:40.985Z,67.32
2023-05-14T21:59:07.707Z,68.27
2023-05-14T22:01:42.185Z,69.13
2023-05-14T22:04:17.722Z,70.67
2023-05-14T22:06:44.550Z,72.20
2023-05-14T22:09:11.612Z,72.92
2023-05-14T22:11:38.436Z,73.99
2023-05-14T22:14:05.151Z,75.34
2023-05-14T22:16:33.279Z,76.15
2023-05-14T22:19:00.085Z,77.49
2023-05-14T22:21:26.945Z,78.32
2023-05-14T22:23:53.972Z,78.90
2023-05-14T22:26:21.833Z,80.30
2023-05-14T22:28:49.817Z,81.02
2023-05-14T22:31:16.650Z,82.03
2023-05-14T22:33:43.447Z,82.90
2023-05-14T22:36:10.696Z,83.50
2023-05-14T22:38:38.583Z,84.53
2023-05-14T22:41:05.543Z,85.92
2023-05-14T22:43:32.293Z,86.60
2023-05-14T22:45:59.019Z,87.61
2023-05-14T22:48:26.066Z,88.60
2023-05-14T22:50:53.557Z,89.44
2023-05-14T22:53:20.286Z,90.62
2023-05-14T22:55:47.022Z,91.31
2023-05-14T22:58:13.690Z,92.42
2023-05-14T23:00:40.440Z,93.90
2023-05-14T23:03:07.200Z,94.67
2023-05-14T23:05:34.064Z,95.18
2023-05-14T23:08:00.954Z,95.92
2023-05-14T23:10:27.845Z,96.63
2023-05-14T23:12:54.523Z,96.98
2023-05-14T23:15:21.226Z,97.69
2023-05-14T23:17:48.073Z,98.00
2023-05-14T23:20:15.108Z,98.44
2023-05-14T23:22:47.498Z,98.55
2023-05-14T23:25:14.557Z,98.87
2023-05-14T23:27:41.397Z,99.50
2023-05-14T23:30:08.583Z,99.70
2023-05-14T23:32:35.250Z,100.00
2023-05-14T23:35:01.941Z,100.00
2023-05-14T23:37:28.618Z,100.00
2023-05-14T23:39:55.742Z,100.00
2023-05-14T23:42:22.979Z,100.00
2023-05-14T23:44:49.785Z,100.00
2023-05-14T23:47:16.570Z,100.00
2023-05-14T23:49:43.335Z,100.00
2023-05-14T23:52:10.113Z,100.00
2023-05-14T23:54:36.812Z,100.00
2023-05-14T23:57:04.177Z,100.00
2023-05-14T23:59:30.890Z,100.00
